Time;durP1;ratioP1;P1;durP2;ratioP2;P2;SDS_P1;SDS_P2;PMS_P1;PMS_P2;Temp;Humidity;BMP_temperature;BMP_pressure;BME280_temperature;BME280_humidity;BME280_pressure;Samples;Min_cycle;Max_cycle;Signal;HPM_P1;HPM_P2
2023/01/29 00:02:43;;;;;;;4.55;4.15;;;;;;;-3.49;100.00;99541.38;15279775;19;20694;-84
2023/01/29 00:08:07;;;;;;;5.20;4.70;;;;;;;-3.59;100.00;99537.28;15284519;19;20093;-85
2023/01/29 00:13:33;;;;;;;5.65;5.15;;;;;;;-3.70;100.00;99531.47;15284366;19;20405;-85
2023/01/29 00:19:01;;;;;;;5.30;4.80;;;;;;;-3.63;100.00;99522.47;15283035;19;20101;-84
2023/01/29 00:24:25;;;;;;;7.25;5.20;;;;;;;-3.80;100.00;99526.44;15283012;19;20045;-82
2023/01/29 00:30:08;;;;;;;5.00;4.50;;;;;;;-3.91;100.00;99517.97;15286850;19;20007;-82
2023/01/29 00:35:43;;;;;;;5.30;4.90;;;;;;;-4.08;100.00;99515.81;15279034;19;20039;-83
2023/01/29 00:46:59;;;;;;;6.15;5.50;;;;;;;-4.27;100.00;99512.81;15289407;19;20015;-83
2023/01/29 00:52:27;;;;;;;6.80;6.20;;;;;;;-4.36;100.00;99512.16;15299533;19;20470;-83
2023/01/29 00:57:54;;;;;;;6.22;5.63;;;;;;;-4.43;100.00;99510.59;15297636;19;20014;-85
2023/01/29 01:03:20;;;;;;;7.28;6.20;;;;;;;-4.49;100.00;99503.75;15292405;19;20022;-85
2023/01/29 01:14:28;;;;;;;6.80;6.20;;;;;;;-4.53;100.00;99514.38;15299185;19;20011;-83
2023/01/29 01:19:53;;;;;;;6.50;5.90;;;;;;;-4.57;100.00;99496.94;15307844;19;20014;-84
2023/01/29 01:25:20;;;;;;;6.78;6.03;;;;;;;-4.64;100.00;99498.88;15286037;19;20011;-82
2023/01/29 01:30:45;;;;;;;6.97;6.28;;;;;;;-4.69;100.00;99488.47;15290390;19;20014;-82
2023/01/29 01:36:18;;;;;;;7.18;6.10;;;;;;;-4.72;100.00;99492.94;15283252;19;20018;-83
2023/01/29 01:41:46;;;;;;;7.63;6.38;;;;;;;-4.73;100.00;99505.22;15283366;19;20007;-85
2023/01/29 01:47:11;;;;;;;6.97;6.28;;;;;;;-4.77;100.00;99490.44;15281237;19;20010;-84
2023/01/29 01:52:39;;;;;;;7.55;6.07;;;;;;;-4.84;100.00;99468.69;15286379;19;20041;-83
2023/01/29 01:58:15;;;;;;;7.03;6.25;;;;;;;-4.87;100.00;99460.88;15327140;19;20450;-82
2023/01/29 02:09:35;;;;;;;6.20;5.60;;;;;;;-4.94;100.00;99467.19;15291306;19;20037;-84
2023/01/29 02:15:04;;;;;;;6.20;5.60;;;;;;;-4.95;100.00;99471.56;15283479;19;20015;-83
2023/01/29 02:20:33;;;;;;;7.10;6.40;;;;;;;-4.96;100.00;99469.84;15293182;19;20034;-84
2023/01/29 13:07:22;;;;;;;4.75;4.28;;;;;;;-1.26;100.00;99136.44;15317666;19;20453;-83
2023/01/29 13:12:57;;;;;;;6.68;4.38;;;;;;;-1.22;100.00;99131.84;15315228;19;20022;-83
2023/01/29 13:18:40;;;;;;;4.57;4.10;;;;;;;-1.15;100.00;99128.03;15302063;19;20039;-83
2023/01/29 13:24:13;;;;;;;4.20;3.80;;;;;;;-1.09;100.00;99133.00;15313010;19;20015;-84
2023/01/29 13:29:40;;;;;;;5.22;4.57;;;;;;;-0.97;100.00;99121.88;15310715;19;20021;-81
2023/01/29 13:35:16;;;;;;;5.85;4.60;;;;;;;-0.98;100.00;99109.56;15293428;19;20365;-85
2023/01/29 13:40:42;;;;;;;4.68;4.28;;;;;;;-0.97;100.00;99100.72;15296364;19;20082;-83
2023/01/29 13:46:12;;;;;;;4.88;4.47;;;;;;;-0.93;100.00;99107.59;15301706;19;20007;-84
2023/01/29 13:51:44;;;;;;;5.15;4.53;;;;;;;-0.93;100.00;99099.66;15289093;19;20383;-81
2023/01/29 13:57:35;;;;;;;5.45;4.95;;;;;;;-0.84;100.00;99092.19;15291488;19;20029;-81
2023/01/29 14:08:46;;;;;;;5.60;4.78;;;;;;;-0.80;100.00;99065.53;15305063;19;19985;-83
2023/01/29 14:14:10;;;;;;;4.65;4.00;;;;;;;-0.75;100.00;99072.41;15293512;19;20037;-83
2023/01/29 14:19:36;;;;;;;6.18;4.57;;;;;;;-0.83;100.00;99065.69;15299918;19;20030;-85
2023/01/29 14:25:08;;;;;;;4.95;4.50;;;;;;;-0.85;100.00;99064.03;15289917;19;20018;-86
2023/01/29 14:30:36;;;;;;;4.78;4.28;;;;;;;-0.85;100.00;99069.31;15295948;19;20016;-83
2023/01/29 14:36:04;;;;;;;6.65;4.30;;;;;;;-0.97;100.00;99068.13;15292751;19;20373;-85
2023/01/29 14:41:34;;;;;;;4.88;4.30;;;;;;;-1.04;100.00;99082.56;15297022;19;20027;-84
2023/01/29 14:47:01;;;;;;;5.07;4.57;;;;;;;-1.11;100.00;99095.19;15294692;19;20074;-82
2023/01/29 14:52:34;;;;;;;6.72;5.00;;;;;;;-1.10;100.00;99094.28;15291078;19;20020;-85
2023/01/29 14:58:05;;;;;;;5.85;4.95;;;;;;;-1.07;100.00;99101.22;15289869;19;20102;-84
2023/01/29 15:03:41;;;;;;;6.10;4.47;;;;;;;-1.18;100.00;99101.72;15285599;19;20070;-82
2023/01/29 15:09:15;;;;;;;5.35;4.50;;;;;;;-1.20;100.00;99099.16;15293143;19;20018;-85
2023/01/29 15:14:58;;;;;;;6.00;4.78;;;;;;;-1.21;100.00;99097.44;15294381;19;20007;-85
2023/01/29 15:20:40;;;;;;;5.43;4.93;;;;;;;-1.21;100.00;99099.19;15298171;19;20033;-84
2023/01/29 15:26:10;;;;;;;5.88;5.25;;;;;;;-1.25;100.00;99096.72;15290787;19;20018;-87
